createdAt,value
2019-03-04T00:00:55.391Z,9.57
2019-03-04T00:03:24.161Z,9.25
2019-03-04T00:05:52.821Z,9.06
2019-03-04T00:08:40.680Z,8.98
2019-03-04T00:11:09.318Z,8.89
2019-03-04T00:13:38.058Z,8.75
2019-03-04T00:16:06.813Z,8.90
2019-03-04T00:18:54.834Z,8.70
2019-03-04T00:21:42.650Z,8.76
2019-03-04T00:24:11.323Z,8.76
2019-03-04T00:26:59.317Z,8.77
2019-03-04T00:29:27.991Z,8.66
2019-03-04T00:31:56.747Z,8.66
2019-03-04T00:34:25.475Z,8.48
2019-03-04T00:36:54.317Z,8.50
2019-03-04T00:41:57.085Z,8.24
2019-03-04T00:44:25.809Z,8.23
2019-03-04T00:46:54.395Z,8.24
2019-03-04T00:49:23.022Z,8.45
2019-03-04T00:51:51.715Z,8.33
2019-03-04T00:55:00.408Z,8.33
2019-03-04T00:57:29.137Z,8.20
2019-03-04T00:59:57.737Z,8.07
2019-03-04T01:02:46.097Z,8.06
2019-03-04T01:05:54.620Z,7.97
2019-03-04T01:08:42.538Z,8.08
2019-03-04T01:11:30.446Z,7.96
2019-03-04T01:13:59.141Z,7.91
2019-03-04T01:16:27.723Z,7.92
2019-03-04T01:19:15.682Z,7.80
2019-03-04T01:22:03.507Z,7.81
2019-03-04T01:24:32.149Z,7.74
2019-03-04T01:27:00.784Z,7.79
2019-03-04T01:29:29.525Z,7.81
2019-03-04T01:31:58.235Z,7.84
2019-03-04T01:34:26.859Z,7.75
2019-03-04T01:36:55.544Z,7.69
2019-03-04T01:39:24.282Z,7.71
2019-03-04T01:41:52.982Z,7.63
2019-03-04T01:44:21.735Z,7.66
2019-03-04T01:46:50.440Z,7.52
2019-03-04T01:49:19.244Z,7.42
2019-03-04T01:51:47.892Z,7.51
2019-03-04T01:54:16.566Z,7.39
2019-03-04T01:56:45.251Z,7.37
2019-03-04T01:59:14.003Z,7.32
2019-03-04T02:01:42.590Z,7.36
2019-03-04T02:04:30.447Z,7.29
2019-03-04T02:07:18.273Z,7.63
2019-03-04T02:09:46.891Z,7.72
2019-03-04T02:12:15.534Z,7.99
2019-03-04T02:14:44.169Z,8.43
2019-03-04T02:17:12.864Z,8.52
2019-03-04T02:19:41.542Z,8.61
2019-03-04T02:22:10.198Z,8.73
2019-03-04T02:24:38.968Z,8.80
2019-03-04T02:27:07.729Z,9.02
2019-03-04T02:29:36.622Z,9.19
2019-03-04T02:32:24.441Z,9.24
2019-03-04T02:34:53.142Z,9.17
2019-03-04T02:37:21.817Z,9.22
2019-03-04T02:40:09.713Z,9.22
2019-03-04T02:42:38.405Z,9.26
2019-03-04T02:45:26.387Z,9.23
2019-03-04T02:48:14.257Z,9.47
2019-03-04T02:51:02.095Z,9.58
2019-03-04T02:53:30.704Z,9.66
2019-03-04T02:56:18.599Z,9.43
2019-03-04T03:01:21.139Z,9.54
2019-03-04T03:03:49.830Z,9.59
2019-03-04T03:06:18.607Z,9.84
2019-03-04T03:08:47.334Z,9.94
2019-03-04T03:11:35.153Z,9.96
2019-03-04T03:14:03.791Z,10.05
2019-03-04T03:16:32.561Z,9.98
2019-03-04T03:19:01.132Z,10.05
2019-03-04T03:21:29.821Z,10.00
2019-03-04T03:23:59.507Z,10.01
2019-03-04T03:26:28.885Z,9.99
2019-03-04T03:28:57.493Z,9.88
2019-03-04T03:31:26.239Z,9.76
2019-03-04T03:33:55.079Z,9.85
2019-03-04T03:36:23.695Z,9.77
2019-03-04T03:39:11.571Z,9.86
2019-03-04T03:41:59.337Z,9.77
2019-03-04T03:44:28.118Z,9.63
2019-03-04T03:49:50.011Z,9.72
2019-03-04T03:52:18.646Z,9.60
2019-03-04T03:54:47.431Z,9.56
2019-03-04T03:57:16.074Z,9.90
2019-03-04T03:59:44.849Z,9.91
2019-03-04T04:02:13.511Z,9.80
2019-03-04T04:04:42.144Z,10.02
2019-03-04T04:07:10.980Z,10.30
2019-03-04T04:09:39.613Z,10.53
2019-03-04T04:12:08.320Z,10.61
2019-03-04T04:14:37.009Z,10.87
2019-03-04T04:17:24.781Z,10.75
2019-03-04T04:19:53.492Z,10.89
2019-03-04T04:22:22.127Z,10.74
2019-03-04T04:25:10.016Z,10.55
2019-03-04T04:27:38.671Z,10.37
2019-03-04T04:30:47.125Z,10.14
2019-03-04T04:33:15.816Z,9.99
2019-03-04T04:35:44.504Z,9.81
2019-03-04T04:38:32.437Z,9.69
2019-03-04T04:41:01.008Z,9.58
2019-03-04T04:43:29.888Z,9.71
2019-03-04T04:48:46.288Z,9.81
2019-03-04T04:51:14.940Z,9.72
2019-03-04T04:53:43.596Z,9.82
2019-03-04T04:56:12.240Z,9.88
2019-03-04T04:58:40.932Z,9.84
2019-03-04T05:01:28.985Z,9.76
2019-03-04T05:03:57.615Z,9.83
2019-03-04T05:07:06.081Z,9.86
2019-03-04T05:09:34.755Z,9.78
2019-03-04T05:12:03.504Z,9.63
2019-03-04T05:15:11.997Z,9.60
2019-03-04T05:17:40.750Z,9.45
2019-03-04T05:20:49.178Z,9.43
2019-03-04T05:23:17.861Z,9.64
2019-03-04T05:26:05.742Z,9.16
2019-03-04T05:28:53.699Z,8.98
2019-03-04T05:31:22.334Z,9.01
2019-03-04T05:33:51.214Z,9.04
2019-03-04T05:39:16.230Z,9.13
2019-03-04T05:42:03.967Z,9.26
2019-03-04T05:47:08.808Z,9.14
2019-03-04T05:49:56.771Z,9.16
2019-03-04T05:52:25.406Z,9.13
2019-03-04T05:54:54.068Z,9.23
2019-03-04T05:57:22.924Z,9.53
2019-03-04T05:59:51.528Z,9.43
2019-03-04T06:02:20.313Z,9.63
2019-03-04T06:04:49.038Z,9.54
2019-03-04T06:10:00.702Z,9.85
2019-03-04T06:12:29.780Z,9.91
2019-03-04T06:14:58.483Z,10.10
2019-03-04T06:17:27.315Z,10.24
2019-03-04T06:19:56.006Z,10.22
2019-03-04T06:22:24.759Z,10.05
2019-03-04T06:25:12.630Z,9.91
2019-03-04T06:27:41.410Z,9.85
2019-03-04T06:30:49.387Z,9.81
2019-03-04T06:33:37.340Z,9.78
2019-03-04T06:36:06.160Z,9.80
2019-03-04T06:38:53.909Z,9.76
2019-03-04T06:41:22.610Z,9.82
2019-03-04T06:44:10.557Z,10.01
2019-03-04T06:46:39.232Z,10.41
2019-03-04T06:49:27.183Z,10.57
2019-03-04T06:51:55.933Z,10.78
2019-03-04T06:55:04.407Z,10.76
2019-03-04T06:57:33.057Z,10.79
2019-03-04T07:00:40.281Z,10.84
2019-03-04T07:03:28.097Z,10.90
2019-03-04T07:05:56.794Z,11.00
2019-03-04T07:09:05.320Z,11.00
2019-03-04T07:11:33.983Z,10.96
2019-03-04T07:14:02.676Z,10.96
2019-03-04T07:16:50.431Z,11.04
2019-03-04T07:19:19.125Z,11.05
2019-03-04T07:21:47.778Z,11.12
2019-03-04T07:24:35.610Z,11.19
2019-03-04T07:27:04.413Z,11.36
2019-03-04T07:29:33.108Z,11.51
2019-03-04T07:32:01.820Z,11.65
2019-03-04T07:34:30.420Z,11.86
2019-03-04T07:36:59.098Z,12.04
2019-03-04T07:39:27.867Z,12.01
2019-03-04T07:44:44.243Z,11.89
2019-03-04T07:47:12.874Z,11.89
2019-03-04T07:49:41.590Z,11.92
2019-03-04T07:52:10.260Z,11.90
2019-03-04T07:54:38.959Z,11.94
2019-03-04T07:57:07.599Z,11.91
2019-03-04T07:59:55.470Z,11.97
2019-03-04T08:02:24.122Z,11.94
2019-03-04T08:04:52.744Z,11.90
2019-03-04T08:08:01.303Z,11.82
2019-03-04T08:11:08.522Z,11.82
2019-03-04T08:14:15.736Z,11.83
2019-03-04T08:17:03.499Z,11.79
2019-03-04T08:19:51.427Z,11.86
2019-03-04T08:22:39.184Z,11.99
2019-03-04T08:25:47.637Z,11.97
2019-03-04T08:28:16.377Z,11.98
2019-03-04T08:30:45.219Z,11.99
2019-03-04T08:33:13.996Z,12.04
2019-03-04T08:35:42.671Z,12.01
2019-03-04T08:38:30.611Z,11.98
2019-03-04T08:40:59.394Z,11.97
2019-03-04T08:43:28.092Z,11.99
2019-03-04T08:45:56.732Z,12.03
2019-03-04T08:48:25.426Z,12.06
2019-03-04T08:50:54.091Z,12.05
2019-03-04T08:53:22.695Z,12.08
2019-03-04T08:55:51.424Z,11.97
2019-03-04T08:58:20.129Z,11.83
2019-03-04T09:01:07.884Z,11.46
2019-03-04T09:03:55.661Z,11.11
2019-03-04T09:06:24.349Z,10.82
2019-03-04T09:08:52.883Z,10.66
2019-03-04T09:11:21.504Z,10.62
2019-03-04T09:13:50.114Z,10.54
2019-03-04T09:16:18.718Z,10.49
2019-03-04T09:18:47.267Z,10.22
2019-03-04T09:21:15.738Z,10.13
2019-03-04T09:23:44.401Z,9.90
2019-03-04T09:26:13.014Z,9.79
2019-03-04T09:28:41.760Z,9.68
2019-03-04T09:31:10.361Z,9.43
2019-03-04T09:33:38.913Z,9.43
2019-03-04T09:36:07.486Z,9.52
2019-03-04T09:38:36.096Z,9.63
2019-03-04T09:41:04.691Z,9.78
2019-03-04T09:43:33.153Z,9.86
2019-03-04T09:46:01.796Z,9.84
2019-03-04T09:48:30.405Z,9.80
2019-03-04T09:50:59.059Z,9.70
2019-03-04T09:53:27.624Z,9.55
2019-03-04T09:55:56.103Z,9.51
2019-03-04T09:58:24.691Z,9.67
2019-03-04T10:01:33.173Z,9.91
2019-03-04T10:04:41.645Z,10.23
2019-03-04T10:07:48.805Z,10.51
2019-03-04T10:10:57.226Z,10.56
2019-03-04T10:14:04.593Z,10.55
2019-03-04T10:17:11.811Z,10.66
2019-03-04T10:20:18.945Z,10.74
2019-03-04T10:23:26.107Z,10.76
2019-03-04T10:26:34.657Z,10.72
2019-03-04T10:29:41.771Z,10.84
2019-03-04T10:32:48.919Z,10.77
2019-03-04T10:35:57.451Z,10.72
2019-03-04T10:39:05.893Z,10.64
2019-03-04T10:42:13.143Z,10.88
2019-03-04T10:45:20.218Z,10.96
2019-03-04T10:48:08.170Z,11.01
2019-03-04T10:50:36.895Z,10.49
2019-03-04T10:53:45.371Z,10.39
2019-03-04T10:56:14.059Z,10.45
2019-03-04T10:58:42.813Z,10.32
2019-03-04T11:01:11.458Z,10.05
2019-03-04T11:03:40.074Z,10.04
2019-03-04T11:06:08.740Z,9.99
2019-03-04T11:08:37.441Z,9.99
2019-03-04T11:11:06.141Z,9.95
2019-03-04T11:13:34.784Z,9.87
2019-03-04T11:21:24.971Z,9.84
2019-03-04T11:23:53.678Z,9.74
2019-03-04T11:26:22.400Z,9.75
2019-03-04T11:28:51.161Z,9.80
2019-03-04T11:34:26.559Z,9.67
2019-03-04T11:37:14.449Z,9.84
2019-03-04T11:40:02.280Z,9.86
2019-03-04T11:42:30.949Z,9.81
2019-03-04T11:44:59.644Z,9.78
2019-03-04T11:47:28.415Z,9.74
2019-03-04T11:49:57.077Z,9.79
2019-03-04T11:52:25.828Z,9.81
2019-03-04T11:55:13.752Z,9.85
2019-03-04T11:57:42.401Z,9.90
2019-03-04T12:05:53.766Z,9.82
2019-03-04T12:08:22.432Z,9.83
2019-03-04T12:11:10.391Z,9.78
2019-03-04T12:13:39.024Z,9.74
2019-03-04T12:16:07.761Z,9.73
2019-03-04T12:21:31.218Z,9.66
2019-03-04T12:24:19.175Z,9.59
2019-03-04T12:32:28.946Z,9.63
2019-03-04T12:34:57.657Z,9.54
2019-03-04T12:37:26.342Z,9.51
2019-03-04T12:39:54.955Z,9.49
2019-03-04T12:42:42.757Z,9.56
2019-03-04T12:45:51.301Z,9.46
2019-03-04T12:48:39.253Z,9.52
2019-03-04T12:51:07.936Z,9.43
2019-03-04T12:53:55.894Z,9.50
2019-03-04T12:56:24.581Z,9.49
2019-03-04T12:58:53.270Z,9.47
2019-03-04T13:01:22.025Z,9.49
2019-03-04T13:03:50.744Z,9.53
2019-03-04T13:06:19.418Z,9.49
2019-03-04T13:09:14.179Z,9.56
2019-03-04T13:11:37.730Z,9.62
2019-03-04T13:14:46.184Z,9.61
2019-03-04T13:17:14.811Z,9.67
2019-03-04T13:19:43.414Z,9.72
2019-03-04T13:22:31.203Z,9.71
2019-03-04T13:24:59.983Z,9.77
2019-03-04T13:27:47.902Z,9.84
2019-03-04T13:30:56.363Z,9.90
2019-03-04T13:33:44.127Z,9.98
2019-03-04T13:36:12.914Z,10.05
2019-03-04T13:39:00.780Z,10.11
2019-03-04T13:41:29.483Z,10.08
2019-03-04T13:43:58.169Z,10.02
2019-03-04T13:46:46.081Z,9.98
2019-03-04T13:49:54.552Z,9.97
2019-03-04T13:52:23.194Z,9.98
2019-03-04T13:54:51.899Z,10.14
2019-03-04T13:57:39.832Z,10.69
2019-03-04T14:00:48.293Z,11.46
2019-03-04T14:03:16.947Z,11.87
2019-03-04T14:05:45.677Z,11.83
2019-03-04T14:08:47.687Z,11.69
2019-03-04T14:11:04.024Z,11.91
2019-03-04T14:13:51.800Z,12.10
2019-03-04T14:16:39.756Z,11.86
2019-03-04T14:19:27.668Z,12.12
2019-03-04T14:21:56.349Z,12.38
2019-03-04T14:24:25.062Z,12.46
2019-03-04T14:26:53.638Z,11.90
2019-03-04T14:29:22.255Z,11.84
2019-03-04T14:31:50.916Z,12.42
2019-03-04T14:34:19.674Z,12.31
2019-03-04T14:36:48.358Z,12.16
2019-03-04T14:39:17.113Z,12.20
2019-03-04T14:41:45.759Z,12.28
2019-03-04T14:44:14.439Z,12.13
2019-03-04T14:46:43.188Z,12.19
2019-03-04T14:49:31.094Z,12.25
2019-03-04T14:52:19.088Z,12.58
2019-03-04T14:54:47.829Z,12.55
2019-03-04T14:57:35.650Z,12.21
2019-03-04T15:00:44.140Z,11.92
2019-03-04T15:03:20.893Z,11.77
2019-03-04T15:05:43.424Z,11.93
2019-03-04T15:08:31.547Z,12.10
2019-03-04T15:11:00.294Z,12.01
2019-03-04T15:13:48.247Z,12.19
2019-03-04T15:16:36.081Z,12.21
2019-03-04T15:19:04.801Z,12.51
2019-03-04T15:21:33.487Z,12.09
2019-03-04T15:24:21.372Z,12.13
2019-03-04T15:26:50.291Z,12.10
2019-03-04T15:29:19.354Z,11.98
2019-03-04T15:31:47.996Z,12.09
2019-03-04T15:34:56.472Z,12.14
2019-03-04T15:40:33.673Z,11.86
2019-03-04T15:45:36.871Z,11.55
2019-03-04T15:48:05.658Z,11.31
2019-03-04T15:50:34.342Z,11.30
2019-03-04T15:53:02.990Z,11.10
2019-03-04T15:55:31.788Z,10.97
2019-03-04T15:58:19.738Z,10.93
2019-03-04T16:00:48.443Z,10.83
2019-03-04T16:03:17.088Z,10.69
2019-03-04T16:05:45.790Z,10.62
2019-03-04T16:08:14.429Z,10.56
2019-03-04T16:10:43.172Z,10.50
2019-03-04T16:13:11.855Z,10.47
2019-03-04T16:16:20.345Z,10.38
2019-03-04T16:18:49.126Z,10.01
2019-03-04T16:21:37.028Z,8.87
2019-03-04T16:24:24.788Z,8.04
2019-03-04T16:27:12.835Z,7.22
2019-03-04T16:29:41.487Z,6.82
2019-03-04T16:32:10.254Z,6.68
2019-03-04T16:34:39.117Z,6.45
2019-03-04T16:37:26.960Z,6.31
2019-03-04T16:39:55.745Z,6.28
2019-03-04T16:42:24.379Z,5.86
2019-03-04T16:44:53.131Z,5.64
2019-03-04T16:47:21.837Z,5.51
2019-03-04T16:49:57.525Z,5.57
2019-03-04T16:53:06.076Z,5.43
2019-03-04T16:58:53.407Z,4.88
2019-03-04T17:02:01.945Z,4.79
2019-03-04T17:04:49.742Z,4.74
2019-03-04T17:07:18.560Z,4.80
2019-03-04T17:09:47.311Z,4.79
2019-03-04T17:12:16.157Z,4.83
2019-03-04T17:14:44.873Z,4.93
2019-03-04T17:17:32.894Z,5.05
2019-03-04T17:20:41.349Z,5.15
2019-03-04T17:23:10.170Z,5.25
2019-03-04T17:28:33.667Z,5.20
2019-03-04T17:31:02.377Z,5.24
2019-03-04T17:33:50.267Z,5.29
2019-03-04T17:36:19.098Z,5.24
2019-03-04T17:38:47.718Z,5.28
2019-03-04T17:41:35.878Z,5.29
2019-03-04T17:47:12.662Z,5.32
2019-03-04T17:50:00.636Z,5.32
2019-03-04T17:57:58.014Z,5.36
2019-03-04T18:01:06.443Z,5.27
2019-03-04T18:03:35.122Z,5.11
2019-03-04T18:08:56.992Z,5.08
2019-03-04T18:11:25.840Z,5.08
2019-03-04T18:14:13.796Z,5.15
2019-03-04T18:17:01.816Z,5.13
2019-03-04T18:19:30.636Z,5.08
2019-03-04T18:22:39.201Z,5.11
2019-03-04T18:25:46.534Z,5.03
2019-03-04T18:28:57.746Z,4.98
2019-03-04T18:35:05.165Z,4.88
2019-03-04T18:38:13.695Z,4.86
2019-03-04T18:41:20.855Z,4.82
2019-03-04T18:44:28.053Z,4.73
2019-03-04T18:47:35.386Z,4.71
2019-03-04T18:50:23.428Z,4.74
2019-03-04T18:53:11.402Z,4.68
2019-03-04T18:55:40.194Z,4.65
2019-03-04T18:58:08.877Z,4.66
2019-03-04T19:00:37.697Z,4.59
2019-03-04T19:03:06.537Z,4.62
2019-03-04T19:05:35.444Z,4.56
2019-03-04T19:08:04.130Z,4.52
2019-03-04T19:10:32.927Z,4.53
2019-03-04T19:13:01.746Z,4.57
2019-03-04T19:15:30.807Z,4.52
2019-03-04T19:17:59.823Z,4.48
2019-03-04T19:20:28.587Z,4.51
2019-03-04T19:22:57.233Z,4.46
2019-03-04T19:25:26.109Z,4.44
2019-03-04T19:27:54.877Z,4.39
2019-03-04T19:30:23.541Z,4.40
2019-03-04T19:35:45.591Z,4.30
2019-03-04T19:38:33.578Z,4.27
2019-03-04T19:41:21.589Z,4.25
2019-03-04T19:43:50.548Z,4.17
2019-03-04T19:46:19.203Z,4.14
2019-03-04T19:48:47.910Z,4.12
2019-03-04T19:51:35.894Z,4.13
2019-03-04T19:54:44.412Z,4.12
2019-03-04T19:57:13.004Z,4.09
2019-03-04T19:59:41.760Z,4.12
2019-03-04T20:02:10.589Z,4.13
2019-03-04T20:07:13.948Z,4.17
2019-03-04T20:09:42.602Z,4.27
2019-03-04T20:12:30.594Z,4.28
2019-03-04T20:14:59.209Z,4.42
2019-03-04T20:18:07.776Z,4.43
2019-03-04T20:21:16.291Z,4.47
2019-03-04T20:23:45.059Z,4.53
2019-03-04T20:26:13.822Z,4.56
2019-03-04T20:31:32.050Z,4.49
2019-03-04T20:34:00.760Z,4.46
2019-03-04T20:41:58.229Z,4.25
2019-03-04T20:47:01.332Z,4.16
2019-03-04T20:49:30.056Z,4.05
2019-03-04T20:55:26.254Z,3.82
2019-03-04T20:57:55.044Z,3.70
2019-03-04T21:01:03.728Z,3.64
2019-03-04T21:03:35.042Z,3.63
2019-03-04T21:06:03.177Z,3.55
2019-03-04T21:08:31.887Z,3.56
2019-03-04T21:11:00.574Z,3.56
2019-03-04T21:13:35.324Z,3.56
2019-03-04T21:16:18.898Z,3.48
2019-03-04T21:21:21.442Z,3.52
2019-03-04T21:23:50.245Z,3.53
2019-03-04T21:26:58.696Z,3.59
2019-03-04T21:30:07.173Z,3.56
2019-03-04T21:32:55.261Z,3.58
2019-03-04T21:36:03.771Z,3.55
2019-03-04T21:38:52.119Z,3.52
2019-03-04T21:42:00.610Z,3.54
2019-03-04T21:45:09.137Z,3.58
2019-03-04T21:48:17.650Z,3.58
2019-03-04T21:51:24.872Z,3.61
2019-03-04T21:54:33.337Z,3.64
2019-03-04T21:57:41.778Z,3.78
2019-03-04T22:00:50.268Z,3.73
2019-03-04T22:03:58.705Z,3.66
2019-03-04T22:06:27.517Z,3.67
2019-03-04T22:08:56.305Z,3.69
2019-03-04T22:11:24.983Z,3.72
2019-03-04T22:13:53.741Z,3.74
2019-03-04T22:16:22.462Z,3.80
2019-03-04T22:31:36.596Z,3.86
2019-03-04T22:34:24.459Z,3.87
2019-03-04T22:37:12.414Z,3.85
2019-03-04T22:40:00.401Z,3.91
2019-03-04T22:42:29.014Z,3.85
2019-03-04T22:45:17.017Z,3.81
2019-03-04T22:47:45.842Z,3.83
2019-03-04T22:50:54.322Z,3.87
2019-03-04T22:53:22.967Z,3.90
2019-03-04T22:55:51.782Z,3.88
2019-03-04T22:58:39.571Z,3.89
2019-03-04T23:01:48.051Z,3.90
2019-03-04T23:04:56.602Z,3.91
2019-03-04T23:07:44.439Z,3.90
2019-03-04T23:10:52.910Z,3.92
2019-03-04T23:14:01.395Z,3.84
2019-03-04T23:17:09.849Z,3.81
2019-03-04T23:19:38.507Z,3.80
2019-03-04T23:22:07.233Z,3.75
2019-03-04T23:24:35.827Z,3.73
2019-03-04T23:27:04.441Z,3.69
2019-03-04T23:29:33.004Z,3.65
2019-03-04T23:32:41.638Z,3.64
2019-03-04T23:35:50.206Z,3.66
2019-03-04T23:44:00.857Z,3.69
2019-03-04T23:46:29.468Z,3.78
2019-03-04T23:48:58.130Z,3.78
2019-03-04T23:51:27.209Z,3.84
2019-03-04T23:53:55.760Z,3.82
2019-03-04T23:56:24.399Z,3.78
2019-03-04T23:58:52.892Z,3.74
